AZU8991 SAWH-SUMU
Flight info
| Callsign | AZU8991 |
|---|---|
| Flight time | N/A |
| Altitude | FL390 |
| Route | USU2B GRA T108 GUDUX UT108 PADIM UZ117 DONED UW33 MDP UM792 DARKA |
| Aircraft | A20N/M-VGDW/C |
Departure
| Time | N/A |
|---|---|
| Airport | Ushuaia - Malvinas Argentinas International Airport (SAWH) |
Arrival
| Time | 2026-04-21 19:08 |
|---|---|
| Airport | Carrasco General Cesáreo L. Berisso International Airport (SUMU) |
| Time | Latitude | Longitude | Altitude | Speed | Heading |
|---|---|---|---|---|---|
| 2026-04-21 17:33 | -41.94253 | -62.03497 | 38550 ft | 456 kts | 14° |
| 2026-04-21 17:33 | -41.88523 | -61.99855 | 38550 ft | 456 kts | 14° |
| 2026-04-21 17:34 | -41.82814 | -61.96233 | 38550 ft | 456 kts | 14° |
| 2026-04-21 17:34 | -41.77068 | -61.92595 | 38550 ft | 456 kts | 14° |
| 2026-04-21 17:35 | -41.71343 | -61.88978 | 38550 ft | 456 kts | 13° |
| 2026-04-21 17:35 | -41.65604 | -61.85359 | 38550 ft | 456 kts | 13° |
| 2026-04-21 17:36 | -41.59865 | -61.81749 | 38409 ft | 460 kts | 13° |
| 2026-04-21 17:36 | -41.56960 | -61.79935 | 38036 ft | 467 kts | 13° |
| 2026-04-21 17:36 | -41.56459 | -61.79623 | 37964 ft | 469 kts | 13° |
| 2026-04-21 17:37 | -41.55007 | -61.78720 | 37751 ft | 473 kts | 14° |
| 2026-04-21 17:37 | -41.52008 | -61.76858 | 37308 ft | 479 kts | 14° |
| 2026-04-21 17:38 | -41.48976 | -61.74971 | 36859 ft | 482 kts | 14° |
| 2026-04-21 17:38 | -41.45952 | -61.73084 | 36412 ft | 483 kts | 14° |
| 2026-04-21 17:38 | -41.42918 | -61.71185 | 35963 ft | 482 kts | 14° |
| 2026-04-21 17:38 | -41.39892 | -61.69287 | 35514 ft | 480 kts | 14° |
| 2026-04-21 17:39 | -41.36888 | -61.67402 | 35066 ft | 479 kts | 14° |
| 2026-04-21 17:39 | -41.33883 | -61.65518 | 34711 ft | 477 kts | 13° |
| 2026-04-21 17:39 | -41.30879 | -61.63635 | 34594 ft | 476 kts | 13° |
| 2026-04-21 17:39 | -41.27892 | -61.61768 | 34549 ft | 475 kts | 13° |
| 2026-04-21 17:40 | -41.21926 | -61.58050 | 34549 ft | 475 kts | 13° |
| 2026-04-21 17:40 | -41.15947 | -61.54339 | 34550 ft | 475 kts | 13° |
| 2026-04-21 17:41 | -41.09976 | -61.50643 | 34550 ft | 475 kts | 13° |
| 2026-04-21 17:41 | -41.03991 | -61.46947 | 34550 ft | 475 kts | 13° |
| 2026-04-21 17:42 | -40.98015 | -61.43264 | 34550 ft | 475 kts | 13° |
| 2026-04-21 17:42 | -40.92042 | -61.39591 | 34550 ft | 475 kts | 13° |
| 2026-04-21 17:43 | -40.86059 | -61.35918 | 34550 ft | 475 kts | 13° |
| 2026-04-21 17:43 | -40.80078 | -61.32254 | 34550 ft | 475 kts | 13° |
| 2026-04-21 17:44 | -40.74097 | -61.28598 | 34550 ft | 475 kts | 13° |
| 2026-04-21 17:44 | -40.68116 | -61.24948 | 34550 ft | 475 kts | 13° |
| 2026-04-21 17:45 | -40.62125 | -61.21300 | 34550 ft | 475 kts | 13° |
| 2026-04-21 17:45 | -40.56139 | -61.17662 | 34550 ft | 475 kts | 13° |
| 2026-04-21 17:46 | -40.50162 | -61.14036 | 34550 ft | 475 kts | 13° |
| 2026-04-21 17:46 | -40.44182 | -61.10415 | 34550 ft | 475 kts | 13° |
| 2026-04-21 17:47 | -40.41161 | -61.08623 | 34665 ft | 479 kts | 25° |
| 2026-04-21 17:47 | -40.38122 | -61.06805 | 34834 ft | 482 kts | 26° |
| 2026-04-21 17:47 | -40.35070 | -61.04963 | 34993 ft | 485 kts | 26° |
| 2026-04-21 17:47 | -40.32016 | -61.03107 | 35101 ft | 488 kts | 26° |
| 2026-04-21 17:48 | -40.25799 | -60.99342 | 35149 ft | 498 kts | 26° |
| 2026-04-21 17:48 | -40.19452 | -60.95521 | 35151 ft | 506 kts | 26° |
| 2026-04-21 17:49 | -40.13035 | -60.91672 | 35151 ft | 512 kts | 26° |
| 2026-04-21 17:49 | -40.06529 | -60.87782 | 35151 ft | 516 kts | 26° |
| 2026-04-21 17:50 | -39.99986 | -60.83880 | 35151 ft | 520 kts | 25° |
| 2026-04-21 17:50 | -39.93404 | -60.79963 | 35151 ft | 522 kts | 25° |
| 2026-04-21 17:51 | -39.86800 | -60.76042 | 35152 ft | 524 kts | 25° |
| 2026-04-21 17:51 | -39.80167 | -60.72112 | 35152 ft | 526 kts | 25° |
| 2026-04-21 17:52 | -39.73520 | -60.68180 | 35151 ft | 526 kts | 25° |
| 2026-04-21 17:52 | -39.66880 | -60.64194 | 35149 ft | 526 kts | 30° |
| 2026-04-21 17:53 | -39.63886 | -60.61532 | 35152 ft | 523 kts | 41° |
| 2026-04-21 17:53 | -39.61245 | -60.58290 | 35156 ft | 522 kts | 48° |
| 2026-04-21 17:53 | -39.56696 | -60.51036 | 35156 ft | 520 kts | 56° |
| 2026-04-21 17:54 | -39.52596 | -60.43326 | 35152 ft | 520 kts | 58° |
| 2026-04-21 17:54 | -39.48648 | -60.35506 | 35147 ft | 521 kts | 59° |
| 2026-04-21 17:55 | -39.44689 | -60.27642 | 35145 ft | 522 kts | 59° |
| 2026-04-21 17:55 | -39.40695 | -60.19817 | 35141 ft | 525 kts | 58° |
| 2026-04-21 17:56 | -39.36625 | -60.11983 | 35143 ft | 527 kts | 58° |
| 2026-04-21 17:56 | -39.32510 | -60.04189 | 35146 ft | 523 kts | 57° |
| 2026-04-21 17:57 | -39.28388 | -59.96484 | 35141 ft | 523 kts | 57° |
| 2026-04-21 17:57 | -39.25622 | -59.91359 | 35138 ft | 526 kts | 57° |
| 2026-04-21 17:58 | -39.21424 | -59.83628 | 35141 ft | 527 kts | 57° |
| 2026-04-21 17:58 | -39.17211 | -59.75919 | 35142 ft | 527 kts | 57° |
| 2026-04-21 17:59 | -39.12992 | -59.68240 | 35140 ft | 522 kts | 57° |
| 2026-04-21 17:59 | -39.10921 | -59.64485 | 35139 ft | 510 kts | 56° |
| 2026-04-21 17:59 | -39.08884 | -59.60801 | 35137 ft | 502 kts | 56° |
| 2026-04-21 18:00 | -39.04865 | -59.53542 | 35135 ft | 495 kts | 56° |
| 2026-04-21 18:00 | -39.00880 | -59.46355 | 35131 ft | 496 kts | 56° |
| 2026-04-21 18:01 | -38.96883 | -59.39163 | 35131 ft | 495 kts | 56° |
| 2026-04-21 18:01 | -38.92879 | -59.31976 | 35130 ft | 495 kts | 55° |
| 2026-04-21 18:02 | -38.88874 | -59.24799 | 35127 ft | 498 kts | 54° |
| 2026-04-21 18:02 | -38.84819 | -59.17553 | 35127 ft | 501 kts | 54° |
| 2026-04-21 18:03 | -38.80759 | -59.10319 | 35128 ft | 502 kts | 54° |
| 2026-04-21 18:03 | -38.76678 | -59.03059 | 35126 ft | 503 kts | 54° |
| 2026-04-21 18:04 | -38.72587 | -58.95796 | 35124 ft | 506 kts | 53° |
| 2026-04-21 18:04 | -38.68466 | -58.88498 | 35123 ft | 508 kts | 53° |
| 2026-04-21 18:05 | -38.64324 | -58.81180 | 35123 ft | 509 kts | 52° |
| 2026-04-21 18:05 | -38.60168 | -58.73853 | 35121 ft | 510 kts | 52° |
| 2026-04-21 18:06 | -38.55995 | -58.66513 | 35120 ft | 511 kts | 51° |
| 2026-04-21 18:06 | -38.51823 | -58.59189 | 35119 ft | 512 kts | 51° |
| 2026-04-21 18:07 | -38.47634 | -58.51853 | 35118 ft | 511 kts | 50° |
| 2026-04-21 18:07 | -38.43452 | -58.44548 | 35117 ft | 511 kts | 50° |
| 2026-04-21 18:08 | -38.39269 | -58.37256 | 35116 ft | 510 kts | 49° |
| 2026-04-21 18:08 | -38.35085 | -58.29978 | 35115 ft | 510 kts | 49° |
| 2026-04-21 18:09 | -38.30896 | -58.22710 | 35115 ft | 509 kts | 49° |
| 2026-04-21 18:09 | -38.26720 | -58.15480 | 35115 ft | 508 kts | 49° |
| 2026-04-21 18:10 | -38.22541 | -58.08261 | 35115 ft | 508 kts | 48° |
| 2026-04-21 18:10 | -38.18352 | -58.01040 | 35114 ft | 507 kts | 48° |
| 2026-04-21 18:11 | -38.14180 | -57.93863 | 35114 ft | 506 kts | 48° |
| 2026-04-21 18:11 | -38.10001 | -57.86692 | 35114 ft | 506 kts | 47° |
| 2026-04-21 18:12 | -38.05822 | -57.79533 | 35113 ft | 505 kts | 47° |
| 2026-04-21 18:12 | -38.01654 | -57.72409 | 35112 ft | 503 kts | 47° |
| 2026-04-21 18:13 | -37.97493 | -57.65314 | 35112 ft | 502 kts | 47° |
| 2026-04-21 18:13 | -37.93078 | -57.58571 | 35109 ft | 488 kts | 34° |
| 2026-04-21 18:14 | -37.87535 | -57.53949 | 35117 ft | 473 kts | 20° |
| 2026-04-21 18:14 | -37.84601 | -57.52149 | 35117 ft | 468 kts | 17° |
| 2026-04-21 18:15 | -37.82039 | -57.50739 | 35117 ft | 465 kts | 15° |
| 2026-04-21 18:15 | -37.76063 | -57.47728 | 35115 ft | 463 kts | 14° |
| 2026-04-21 18:16 | -37.70045 | -57.44821 | 35116 ft | 465 kts | 14° |
| 2026-04-21 18:16 | -37.63982 | -57.41879 | 35118 ft | 471 kts | 15° |
| 2026-04-21 18:17 | -37.57837 | -57.38850 | 35121 ft | 480 kts | 18° |
| 2026-04-21 18:17 | -37.51579 | -57.35709 | 35128 ft | 488 kts | 20° |
| 2026-04-21 18:18 | -37.45267 | -57.32494 | 35129 ft | 492 kts | 20° |
| 2026-04-21 18:18 | -37.38951 | -57.29249 | 35134 ft | 491 kts | 22° |
| 2026-04-21 18:19 | -37.32667 | -57.26002 | 35137 ft | 487 kts | 23° |
| 2026-04-21 18:19 | -37.26434 | -57.22774 | 35138 ft | 484 kts | 23° |
| 2026-04-21 18:20 | -37.20241 | -57.19565 | 35138 ft | 482 kts | 23° |
| 2026-04-21 18:20 | -37.14063 | -57.16366 | 35140 ft | 479 kts | 23° |
| 2026-04-21 18:21 | -37.07926 | -57.13193 | 35139 ft | 477 kts | 23° |
| 2026-04-21 18:21 | -37.01812 | -57.10038 | 35139 ft | 477 kts | 23° |
| 2026-04-21 18:22 | -36.95669 | -57.06872 | 34785 ft | 482 kts | 23° |
| 2026-04-21 18:22 | -36.92582 | -57.05283 | 34318 ft | 480 kts | 23° |
| 2026-04-21 18:22 | -36.89515 | -57.03707 | 33811 ft | 473 kts | 23° |
| 2026-04-21 18:22 | -36.86504 | -57.02161 | 33204 ft | 468 kts | 23° |
| 2026-04-21 18:23 | -36.83511 | -57.00626 | 32562 ft | 464 kts | 23° |
| 2026-04-21 18:23 | -36.80548 | -56.99107 | 31915 ft | 460 kts | 23° |
| 2026-04-21 18:23 | -36.77603 | -56.97599 | 31265 ft | 456 kts | 23° |
| 2026-04-21 18:23 | -36.74690 | -56.96119 | 30617 ft | 452 kts | 23° |
| 2026-04-21 18:24 | -36.71790 | -56.94656 | 29967 ft | 448 kts | 23° |
| 2026-04-21 18:24 | -36.68923 | -56.93218 | 29319 ft | 444 kts | 23° |
| 2026-04-21 18:24 | -36.66083 | -56.91797 | 28672 ft | 440 kts | 23° |
| 2026-04-21 18:24 | -36.63251 | -56.90383 | 28008 ft | 436 kts | 23° |
| 2026-04-21 18:25 | -36.60460 | -56.88992 | 27338 ft | 433 kts | 23° |
| 2026-04-21 18:25 | -36.57683 | -56.87609 | 26665 ft | 429 kts | 23° |
| 2026-04-21 18:25 | -36.54920 | -56.86233 | 25990 ft | 426 kts | 22° |
| 2026-04-21 18:25 | -36.52236 | -56.84898 | 25328 ft | 422 kts | 22° |
| 2026-04-21 18:26 | -36.51909 | -56.84735 | 25247 ft | 422 kts | 22° |
| 2026-04-21 18:26 | -36.49207 | -56.83392 | 24574 ft | 419 kts | 23° |
| 2026-04-21 18:27 | -36.46517 | -56.82057 | 23900 ft | 416 kts | 23° |
| 2026-04-21 18:27 | -36.43842 | -56.80729 | 23225 ft | 412 kts | 22° |
| 2026-04-21 18:27 | -36.41201 | -56.79419 | 22553 ft | 409 kts | 22° |
| 2026-04-21 18:27 | -36.41189 | -56.79413 | 22550 ft | 409 kts | 22° |
| 2026-04-21 18:28 | -36.39804 | -56.78726 | 22196 ft | 408 kts | 22° |
| 2026-04-21 18:28 | -36.37192 | -56.77430 | 21523 ft | 404 kts | 22° |
| 2026-04-21 18:28 | -36.34821 | -56.76255 | 20908 ft | 401 kts | 21° |
| 2026-04-21 18:29 | -36.33499 | -56.75599 | 20563 ft | 400 kts | 21° |
| 2026-04-21 18:29 | -36.30931 | -56.74327 | 19888 ft | 396 kts | 21° |
| 2026-04-21 18:29 | -36.28376 | -56.73062 | 19202 ft | 394 kts | 21° |
| 2026-04-21 18:29 | -36.25858 | -56.71817 | 18660 ft | 388 kts | 20° |
| 2026-04-21 18:30 | -36.23385 | -56.70594 | 18178 ft | 380 kts | 20° |
| 2026-04-21 18:30 | -36.20951 | -56.69392 | 17701 ft | 373 kts | 20° |
| 2026-04-21 18:30 | -36.18570 | -56.68217 | 17227 ft | 366 kts | 20° |
| 2026-04-21 18:30 | -36.16227 | -56.67062 | 16752 ft | 360 kts | 20° |
| 2026-04-21 18:31 | -36.14061 | -56.65597 | 16214 ft | 359 kts | 41° |
| 2026-04-21 18:31 | -36.12495 | -56.63240 | 15764 ft | 354 kts | 50° |
| 2026-04-21 18:31 | -36.11133 | -56.60730 | 15289 ft | 351 kts | 58° |
| 2026-04-21 18:31 | -36.10004 | -56.58079 | 14829 ft | 347 kts | 62° |
| 2026-04-21 18:32 | -36.08956 | -56.55429 | 14355 ft | 342 kts | 62° |
| 2026-04-21 18:32 | -36.07884 | -56.52825 | 13877 ft | 339 kts | 60° |
| 2026-04-21 18:32 | -36.07014 | -56.50785 | 13494 ft | 336 kts | 58° |
| 2026-04-21 18:32 | -36.06317 | -56.49451 | 13266 ft | 332 kts | 52° |
| 2026-04-21 18:33 | -36.04889 | -56.47281 | 13147 ft | 319 kts | 46° |
| 2026-04-21 18:33 | -36.03406 | -56.45304 | 13116 ft | 313 kts | 44° |
| 2026-04-21 18:33 | -36.01866 | -56.43369 | 13087 ft | 322 kts | 42° |
| 2026-04-21 18:33 | -36.00253 | -56.41378 | 13075 ft | 335 kts | 42° |
| 2026-04-21 18:34 | -35.98579 | -56.39326 | 13066 ft | 343 kts | 42° |
| 2026-04-21 18:34 | -35.97736 | -56.38301 | 13063 ft | 345 kts | 41° |
| 2026-04-21 18:34 | -35.95952 | -56.36321 | 13057 ft | 348 kts | 38° |
| 2026-04-21 18:34 | -35.94082 | -56.34419 | 13053 ft | 351 kts | 36° |
| 2026-04-21 18:35 | -35.92152 | -56.32525 | 13052 ft | 357 kts | 35° |
| 2026-04-21 18:35 | -35.90180 | -56.30637 | 13050 ft | 362 kts | 34° |
| 2026-04-21 18:35 | -35.88116 | -56.28854 | 13048 ft | 365 kts | 31° |
| 2026-04-21 18:35 | -35.85977 | -56.27163 | 13046 ft | 366 kts | 28° |
| 2026-04-21 18:36 | -35.83749 | -56.25632 | 13040 ft | 367 kts | 25° |
| 2026-04-21 18:36 | -35.81482 | -56.24193 | 13034 ft | 368 kts | 24° |
| 2026-04-21 18:36 | -35.79197 | -56.22787 | 13028 ft | 369 kts | 23° |
| 2026-04-21 18:36 | -35.76899 | -56.21391 | 13023 ft | 370 kts | 22° |
| 2026-04-21 18:37 | -35.74587 | -56.19991 | 13017 ft | 371 kts | 22° |
| 2026-04-21 18:37 | -35.72280 | -56.18593 | 13015 ft | 371 kts | 22° |
| 2026-04-21 18:37 | -35.69958 | -56.17188 | 13015 ft | 372 kts | 22° |
| 2026-04-21 18:37 | -35.67646 | -56.15791 | 13014 ft | 372 kts | 22° |
| 2026-04-21 18:38 | -35.65322 | -56.14387 | 13012 ft | 373 kts | 22° |
| 2026-04-21 18:38 | -35.62989 | -56.12980 | 13011 ft | 373 kts | 22° |
| 2026-04-21 18:38 | -35.60664 | -56.11579 | 13011 ft | 374 kts | 22° |
| 2026-04-21 18:38 | -35.58340 | -56.10181 | 13011 ft | 374 kts | 22° |
| 2026-04-21 18:39 | -35.56008 | -56.08780 | 13011 ft | 374 kts | 22° |
| 2026-04-21 18:39 | -35.53675 | -56.07380 | 13011 ft | 374 kts | 22° |
| 2026-04-21 18:39 | -35.51343 | -56.05983 | 13011 ft | 374 kts | 22° |
| 2026-04-21 18:39 | -35.49014 | -56.04589 | 13011 ft | 374 kts | 22° |
| 2026-04-21 18:40 | -35.47414 | -56.03634 | 13011 ft | 374 kts | 22° |
| 2026-04-21 18:40 | -35.45058 | -56.02230 | 12790 ft | 379 kts | 22° |
| 2026-04-21 18:40 | -35.42666 | -56.00816 | 12396 ft | 385 kts | 22° |
| 2026-04-21 18:40 | -35.40257 | -55.99405 | 11998 ft | 386 kts | 22° |
| 2026-04-21 18:41 | -35.37831 | -55.98001 | 11597 ft | 385 kts | 23° |
| 2026-04-21 18:41 | -35.35412 | -55.96623 | 11197 ft | 383 kts | 23° |
| 2026-04-21 18:41 | -35.33010 | -55.95283 | 10799 ft | 380 kts | 23° |
| 2026-04-21 18:41 | -35.30805 | -55.94079 | 10432 ft | 378 kts | 23° |
| 2026-04-21 18:42 | -35.28418 | -55.92814 | 10049 ft | 373 kts | 23° |
| 2026-04-21 18:42 | -35.26058 | -55.91598 | 9645 ft | 362 kts | 22° |
| 2026-04-21 18:42 | -35.23771 | -55.90435 | 9244 ft | 352 kts | 22° |
| 2026-04-21 18:42 | -35.21546 | -55.89306 | 8784 ft | 343 kts | 22° |
| 2026-04-21 18:43 | -35.20298 | -55.88674 | 8499 ft | 339 kts | 21° |
| 2026-04-21 18:43 | -35.19075 | -55.88088 | 8219 ft | 336 kts | 20° |
| 2026-04-21 18:43 | -35.18139 | -55.87663 | 8004 ft | 333 kts | 19° |
| 2026-04-21 18:43 | -35.15975 | -55.86722 | 7504 ft | 328 kts | 18° |
| 2026-04-21 18:44 | -35.13844 | -55.85819 | 7004 ft | 323 kts | 18° |
| 2026-04-21 18:44 | -35.11738 | -55.84945 | 6505 ft | 318 kts | 18° |
| 2026-04-21 18:44 | -35.09664 | -55.84079 | 6118 ft | 311 kts | 18° |
| 2026-04-21 18:44 | -35.07677 | -55.83237 | 6036 ft | 296 kts | 18° |
| 2026-04-21 18:45 | -35.05758 | -55.82418 | 6018 ft | 290 kts | 18° |
| 2026-04-21 18:45 | -35.03842 | -55.81601 | 6017 ft | 294 kts | 18° |
| 2026-04-21 18:45 | -35.01906 | -55.80776 | 6017 ft | 299 kts | 18° |
| 2026-04-21 18:45 | -34.99905 | -55.79926 | 5762 ft | 308 kts | 18° |
| 2026-04-21 18:46 | -34.98196 | -55.79230 | 5426 ft | 304 kts | 16° |
| 2026-04-21 18:46 | -34.96168 | -55.78630 | 5144 ft | 294 kts | 10° |
| 2026-04-21 18:46 | -34.94854 | -55.78367 | 5068 ft | 284 kts | 6° |
| 2026-04-21 18:46 | -34.92941 | -55.78376 | 5026 ft | 267 kts | 354° |
| 2026-04-21 18:47 | -34.91172 | -55.78697 | 5018 ft | 250 kts | 350° |
| 2026-04-21 18:47 | -34.89516 | -55.79095 | 5014 ft | 235 kts | 348° |
| 2026-04-21 18:47 | -34.87966 | -55.79524 | 5013 ft | 222 kts | 347° |
| 2026-04-21 18:47 | -34.86507 | -55.79966 | 5013 ft | 213 kts | 346° |
| 2026-04-21 18:48 | -34.85657 | -55.80229 | 5014 ft | 210 kts | 346° |
| 2026-04-21 18:48 | -34.84271 | -55.80659 | 5020 ft | 201 kts | 346° |
| 2026-04-21 18:48 | -34.82955 | -55.81068 | 5016 ft | 192 kts | 346° |
| 2026-04-21 18:48 | -34.81681 | -55.81465 | 5015 ft | 188 kts | 346° |
| 2026-04-21 18:49 | -34.80426 | -55.81855 | 5016 ft | 186 kts | 346° |
| 2026-04-21 18:49 | -34.79179 | -55.82248 | 5014 ft | 186 kts | 345° |
| 2026-04-21 18:49 | -34.78347 | -55.82535 | 4958 ft | 189 kts | 344° |
| 2026-04-21 18:49 | -34.77097 | -55.82987 | 4707 ft | 198 kts | 343° |
| 2026-04-21 18:50 | -34.75883 | -55.83794 | 4363 ft | 203 kts | 323° |
| 2026-04-21 18:50 | -34.75061 | -55.84896 | 4104 ft | 204 kts | 312° |
| 2026-04-21 18:50 | -34.74447 | -55.86120 | 3809 ft | 207 kts | 297° |
| 2026-04-21 18:50 | -34.74387 | -55.87868 | 3544 ft | 212 kts | 263° |
| 2026-04-21 18:51 | -34.74898 | -55.89016 | 3449 ft | 212 kts | 237° |
| 2026-04-21 18:51 | -34.75838 | -55.90099 | 3388 ft | 211 kts | 225° |
| 2026-04-21 18:51 | -34.76857 | -55.91392 | 3256 ft | 213 kts | 233° |
| 2026-04-21 18:51 | -34.77719 | -55.92842 | 3015 ft | 211 kts | 239° |
| 2026-04-21 18:52 | -34.78531 | -55.94276 | 2827 ft | 202 kts | 238° |
| 2026-04-21 18:52 | -34.79341 | -55.95614 | 2807 ft | 192 kts | 237° |
| 2026-04-21 18:52 | -34.80136 | -55.96925 | 2698 ft | 197 kts | 237° |
| 2026-04-21 18:52 | -34.80953 | -55.98311 | 2398 ft | 208 kts | 237° |
| 2026-04-21 18:53 | -34.81830 | -55.99783 | 1611 ft | 215 kts | 231° |
| 2026-04-21 18:53 | -34.82660 | -56.01204 | 734 ft | 199 kts | 232° |
| 2026-04-21 18:53 | -34.83409 | -56.02337 | 117 ft | 181 kts | 232° |
| 2026-04-21 18:53 | -34.83762 | -56.02912 | 117 ft | 143 kts | 239° |
| 2026-04-21 18:54 | -34.84161 | -56.03819 | 117 ft | 117 kts | 245° |
| 2026-04-21 18:54 | -34.84504 | -56.04782 | 307 ft | 127 kts | 244° |
| 2026-04-21 18:54 | -34.85126 | -56.05543 | 593 ft | 140 kts | 211° |
| 2026-04-21 18:54 | -34.86183 | -56.05610 | 727 ft | 165 kts | 171° |
| 2026-04-21 18:55 | -34.87184 | -56.04860 | 1027 ft | 185 kts | 132° |
| 2026-04-21 18:55 | -34.87611 | -56.03131 | 445 ft | 256 kts | 99° |
| 2026-04-21 18:55 | -34.88166 | -56.00900 | 652 ft | 286 kts | 108° |
| 2026-04-21 18:55 | -34.88531 | -55.98533 | 989 ft | 290 kts | 92° |
| 2026-04-21 18:56 | -34.88106 | -55.96047 | 638 ft | 315 kts | 71° |
| 2026-04-21 18:56 | -34.87570 | -55.93506 | 1203 ft | 304 kts | 85° |
| 2026-04-21 18:56 | -34.88136 | -55.91056 | 978 ft | 321 kts | 125° |
| 2026-04-21 18:56 | -34.89348 | -55.88950 | 2064 ft | 292 kts | 116° |
| 2026-04-21 18:57 | -34.89760 | -55.86541 | 1208 ft | 307 kts | 90° |
| 2026-04-21 18:57 | -34.89235 | -55.84206 | 110 ft | 249 kts | 65° |
| 2026-04-21 18:57 | -34.88248 | -55.82607 | 1171 ft | 232 kts | 41° |
| 2026-04-21 18:57 | -34.86817 | -55.81962 | 2578 ft | 211 kts | 6° |
| 2026-04-21 18:58 | -34.85925 | -55.82132 | 3635 ft | 190 kts | 344° |
| 2026-04-21 18:58 | -34.85003 | -55.83061 | 5042 ft | 166 kts | 308° |
| 2026-04-21 18:58 | -34.84810 | -55.84415 | 6003 ft | 171 kts | 271° |
| 2026-04-21 18:58 | -34.85096 | -55.85380 | 6524 ft | 176 kts | 252° |
| 2026-04-21 18:59 | -34.85435 | -55.86297 | 7257 ft | 160 kts | 257° |
| 2026-04-21 18:59 | -34.85369 | -55.87599 | 7852 ft | 160 kts | 291° |
| 2026-04-21 18:59 | -34.84847 | -55.88803 | 8492 ft | 160 kts | 304° |
| 2026-04-21 18:59 | -34.84340 | -55.89930 | 9395 ft | 142 kts | 304° |
| 2026-04-21 19:00 | -34.83904 | -55.90958 | 9986 ft | 147 kts | 304° |
| 2026-04-21 19:00 | -34.83271 | -55.92242 | 9442 ft | 200 kts | 307° |
| 2026-04-21 19:00 | -34.82699 | -55.93226 | 9040 ft | 215 kts | 312° |
| 2026-04-21 19:00 | -34.81459 | -55.94234 | 8414 ft | 221 kts | 342° |
| 2026-04-21 19:01 | -34.79925 | -55.94296 | 7839 ft | 225 kts | 7° |
| 2026-04-21 19:01 | -34.78422 | -55.93688 | 7254 ft | 232 kts | 21° |
| 2026-04-21 19:01 | -34.77373 | -55.93072 | 6686 ft | 238 kts | 25° |
| 2026-04-21 19:01 | -34.76009 | -55.91908 | 5823 ft | 247 kts | 40° |
| 2026-04-21 19:02 | -34.75275 | -55.90769 | 5246 ft | 252 kts | 53° |
| 2026-04-21 19:02 | -34.74597 | -55.88779 | 4407 ft | 259 kts | 70° |
| 2026-04-21 19:02 | -34.74019 | -55.86730 | 3542 ft | 256 kts | 59° |
| 2026-04-21 19:02 | -34.72810 | -55.85210 | 2692 ft | 250 kts | 33° |
| 2026-04-21 19:03 | -34.71553 | -55.84651 | 2031 ft | 247 kts | 12° |
| 2026-04-21 19:03 | -34.70052 | -55.84803 | 1406 ft | 249 kts | 344° |
| 2026-04-21 19:03 | -34.68864 | -55.85828 | 1543 ft | 217 kts | 314° |
| 2026-04-21 19:03 | -34.68381 | -55.87074 | 1672 ft | 206 kts | 284° |
| 2026-04-21 19:04 | -34.68536 | -55.88794 | 1862 ft | 211 kts | 247° |
| 2026-04-21 19:04 | -34.69009 | -55.89737 | 1973 ft | 212 kts | 232° |
| 2026-04-21 19:04 | -34.69728 | -55.90522 | 2001 ft | 220 kts | 219° |
| 2026-04-21 19:04 | -34.70511 | -55.91007 | 2009 ft | 223 kts | 203° |
| 2026-04-21 19:05 | -34.72022 | -55.91450 | 2037 ft | 226 kts | 191° |
| 2026-04-21 19:05 | -34.73582 | -55.91775 | 1948 ft | 227 kts | 189° |
| 2026-04-21 19:05 | -34.74794 | -55.92030 | 1866 ft | 218 kts | 188° |
| 2026-04-21 19:05 | -34.76217 | -55.92372 | 1812 ft | 200 kts | 189° |
| 2026-04-21 19:06 | -34.77469 | -55.92968 | 1793 ft | 191 kts | 205° |
| 2026-04-21 19:06 | -34.78444 | -55.94108 | 1557 ft | 205 kts | 228° |
| 2026-04-21 19:06 | -34.79219 | -55.95583 | 1342 ft | 208 kts | 236° |
| 2026-04-21 19:06 | -34.80057 | -55.96959 | 1041 ft | 195 kts | 230° |
| 2026-04-21 19:07 | -34.80880 | -55.98208 | 793 ft | 186 kts | 231° |
| 2026-04-21 19:07 | -34.81631 | -55.99475 | 552 ft | 185 kts | 233° |
| 2026-04-21 19:07 | -34.82395 | -56.00727 | 310 ft | 185 kts | 232° |
| 2026-04-21 19:07 | -34.83161 | -56.01964 | 117 ft | 171 kts | 232° |
| 2026-04-21 19:08 | -34.83724 | -56.02897 | 117 ft | 97 kts | 230° |
| 2026-04-21 19:08 | -34.83937 | -56.03230 | 117 ft | 8 kts | 220° |
| 2026-04-21 19:08 | -34.83941 | -56.03248 | 117 ft | 5 kts | 290° |
| 2026-04-21 19:08 | -34.83914 | -56.03241 | 117 ft | 5 kts | 56° |
| 2026-04-21 19:09 | -34.83890 | -56.03193 | 117 ft | 8 kts | 61° |
| 2026-04-21 19:09 | -34.83860 | -56.03125 | 117 ft | 10 kts | 58° |
| 2026-04-21 19:09 | -34.83814 | -56.03042 | 117 ft | 14 kts | 53° |
| 2026-04-21 19:09 | -34.83759 | -56.02935 | 117 ft | 16 kts | 78° |
| 2026-04-21 19:10 | -34.83802 | -56.02831 | 117 ft | 13 kts | 179° |
| 2026-04-21 19:10 | -34.83896 | -56.02813 | 117 ft | 15 kts | 169° |
| 2026-04-21 19:10 | -34.83974 | -56.02736 | 117 ft | 14 kts | 101° |
| 2026-04-21 19:10 | -34.83955 | -56.02634 | 117 ft | 13 kts | 70° |
| 2026-04-21 19:11 | -34.83931 | -56.02518 | 117 ft | 11 kts | 85° |
| 2026-04-21 19:11 | -34.83898 | -56.02443 | 117 ft | 8 kts | 28° |
| 2026-04-21 19:11 | -34.83868 | -56.02432 | 117 ft | 0 kts | 356° |
| 2026-04-21 19:11 | -34.83867 | -56.02432 | 117 ft | 0 kts | 356° |